createdAt,value
2023-04-25T00:00:02.043Z,10.05
2023-04-25T00:02:30.543Z,10.01
2023-04-25T00:05:00.627Z,9.96
2023-04-25T00:07:28.713Z,9.96
2023-04-25T00:09:56.802Z,9.96
2023-04-25T00:12:25.256Z,9.96
2023-04-25T00:14:53.691Z,9.99
2023-04-25T00:17:21.775Z,10.00
2023-04-25T00:19:49.872Z,9.99
2023-04-25T00:22:18.160Z,9.98
2023-04-25T00:24:46.221Z,9.99
2023-04-25T00:27:14.227Z,9.96
2023-04-25T00:29:42.230Z,9.93
2023-04-25T00:32:10.276Z,9.90
2023-04-25T00:34:38.463Z,9.90
2023-04-25T00:37:06.401Z,9.91
2023-04-25T00:39:34.441Z,9.90
2023-04-25T00:42:03.127Z,9.89
2023-04-25T00:44:32.298Z,9.87
2023-04-25T00:47:00.460Z,9.84
2023-04-25T00:49:28.625Z,9.83
2023-04-25T00:51:56.844Z,9.83
2023-04-25T00:54:24.863Z,9.82
2023-04-25T00:56:52.838Z,9.79
2023-04-25T00:59:21.685Z,9.78
2023-04-25T01:01:49.706Z,9.75
2023-04-25T01:04:17.880Z,9.74
2023-04-25T01:06:46.224Z,9.73
2023-04-25T01:09:14.368Z,9.73
2023-04-25T01:11:42.722Z,9.68
2023-04-25T01:14:10.683Z,9.68
2023-04-25T01:16:39.346Z,9.64
2023-04-25T01:19:13.484Z,9.68
2023-04-25T01:21:41.540Z,9.63
2023-04-25T01:24:09.494Z,9.63
2023-04-25T01:26:37.685Z,9.61
2023-04-25T01:29:09.778Z,9.57
2023-04-25T01:31:37.731Z,9.56
2023-04-25T01:34:05.686Z,9.53
2023-04-25T01:36:33.690Z,9.51
2023-04-25T01:39:01.987Z,9.51
2023-04-25T01:41:30.234Z,9.48
2023-04-25T01:43:58.249Z,9.42
2023-04-25T01:46:26.347Z,9.40
2023-04-25T01:48:54.403Z,9.31
2023-04-25T01:51:22.381Z,9.21
2023-04-25T01:53:50.528Z,9.12
2023-04-25T01:56:19.959Z,9.05
2023-04-25T01:58:47.941Z,8.96
2023-04-25T02:01:15.971Z,8.92
2023-04-25T02:03:44.169Z,8.83
2023-04-25T02:06:12.348Z,8.74
2023-04-25T02:08:40.424Z,8.65
2023-04-25T02:11:08.465Z,8.62
2023-04-25T02:13:36.566Z,8.57
2023-04-25T02:16:04.642Z,8.50
2023-04-25T02:18:33.624Z,8.48
2023-04-25T02:21:02.012Z,8.42
2023-04-25T02:23:30.696Z,8.39
2023-04-25T02:25:59.601Z,8.41
2023-04-25T02:28:28.394Z,8.40
2023-04-25T02:30:56.471Z,8.32
2023-04-25T02:33:24.505Z,8.26
2023-04-25T02:35:52.511Z,8.25
2023-04-25T02:38:20.465Z,8.25
2023-04-25T02:40:48.450Z,8.23
2023-04-25T02:43:16.531Z,8.17
2023-04-25T02:45:44.560Z,8.16
2023-04-25T02:48:12.648Z,8.13
2023-04-25T02:50:40.684Z,8.13
2023-04-25T02:53:08.631Z,8.10
2023-04-25T02:55:36.709Z,8.07
2023-04-25T02:58:04.737Z,8.04
2023-04-25T03:00:32.800Z,8.03
2023-04-25T03:03:00.851Z,8.03
2023-04-25T03:05:28.885Z,8.00
2023-04-25T03:07:56.911Z,7.97
2023-04-25T03:10:24.853Z,7.93
2023-04-25T03:12:52.848Z,7.88
2023-04-25T03:15:21.088Z,7.86
2023-04-25T03:17:49.162Z,7.84
2023-04-25T03:20:17.191Z,7.81
2023-04-25T03:22:45.228Z,7.84
2023-04-25T03:25:13.294Z,7.86
2023-04-25T03:27:41.321Z,7.84
2023-04-25T03:30:10.281Z,7.88
2023-04-25T03:32:38.390Z,7.90
2023-04-25T03:35:07.646Z,7.91
2023-04-25T03:37:35.579Z,7.98
2023-04-25T03:40:03.607Z,7.98
2023-04-25T03:42:31.818Z,7.96
2023-04-25T03:44:59.930Z,7.96
2023-04-25T03:47:28.071Z,7.99
2023-04-25T03:49:56.054Z,7.93
2023-04-25T03:52:24.053Z,7.91
2023-04-25T03:54:51.987Z,7.87
2023-04-25T03:57:19.974Z,7.90
2023-04-25T03:59:47.896Z,7.87
2023-04-25T04:02:15.917Z,7.83
2023-04-25T04:04:46.697Z,7.87
2023-04-25T04:07:14.882Z,7.86
2023-04-25T04:09:42.841Z,7.84
2023-04-25T04:12:10.813Z,7.77
2023-04-25T04:14:38.804Z,7.75
2023-04-25T04:17:08.395Z,7.73
2023-04-25T04:19:36.388Z,7.73
2023-04-25T04:22:04.369Z,7.67
2023-04-25T04:24:32.385Z,7.66
2023-04-25T04:27:01.230Z,7.64
2023-04-25T04:29:29.552Z,7.62
2023-04-25T04:31:57.710Z,7.59
2023-04-25T04:34:27.151Z,7.59
2023-04-25T04:36:55.193Z,7.58
2023-04-25T04:39:23.705Z,7.57
2023-04-25T04:41:51.712Z,7.58
2023-04-25T04:44:19.745Z,7.59
2023-04-25T04:46:49.037Z,7.58
2023-04-25T04:49:17.414Z,7.62
2023-04-25T04:51:46.926Z,7.66
2023-04-25T04:54:15.104Z,7.69
2023-04-25T04:56:44.132Z,7.78
2023-04-25T04:59:12.687Z,7.80
2023-04-25T05:01:40.662Z,7.86
2023-04-25T05:04:08.849Z,7.87
2023-04-25T05:06:37.112Z,7.94
2023-04-25T05:09:05.217Z,7.97
2023-04-25T05:11:33.214Z,7.96
2023-04-25T05:14:01.330Z,8.00
2023-04-25T05:16:29.545Z,8.01
2023-04-25T05:18:57.626Z,8.03
2023-04-25T05:21:25.773Z,8.06
2023-04-25T05:23:53.978Z,8.10
2023-04-25T05:26:22.926Z,8.12
2023-04-25T05:28:50.848Z,8.16
2023-04-25T05:31:18.891Z,8.20
2023-04-25T05:33:46.908Z,8.25
2023-04-25T05:36:14.866Z,8.29
2023-04-25T05:38:42.863Z,8.34
2023-04-25T05:41:10.987Z,8.34
2023-04-25T05:43:39.224Z,8.40
2023-04-25T05:46:07.196Z,8.43
2023-04-25T05:48:35.137Z,8.45
2023-04-25T05:51:03.343Z,8.44
2023-04-25T05:53:31.296Z,8.47
2023-04-25T05:55:59.318Z,8.51
2023-04-25T05:58:27.802Z,8.51
2023-04-25T06:00:55.752Z,8.55
2023-04-25T06:03:24.019Z,8.59
2023-04-25T06:05:52.830Z,8.62
2023-04-25T06:08:21.335Z,8.65
2023-04-25T06:10:49.394Z,8.69
2023-04-25T06:13:17.833Z,8.79
2023-04-25T06:15:45.856Z,8.88
2023-04-25T06:18:14.076Z,8.97
2023-04-25T06:20:42.326Z,8.98
2023-04-25T06:23:10.598Z,9.04
2023-04-25T06:25:38.581Z,9.11
2023-04-25T06:28:06.711Z,9.20
2023-04-25T06:30:34.759Z,9.25
2023-04-25T06:33:02.825Z,9.35
2023-04-25T06:35:30.959Z,9.49
2023-04-25T06:37:58.905Z,9.62
2023-04-25T06:40:27.065Z,9.63
2023-04-25T06:42:55.114Z,9.63
2023-04-25T06:45:23.117Z,9.71
2023-04-25T06:47:51.124Z,9.72
2023-04-25T06:50:19.160Z,9.75
2023-04-25T06:52:47.106Z,9.78
2023-04-25T06:55:15.107Z,9.86
2023-04-25T06:57:43.075Z,10.10
2023-04-25T07:00:11.971Z,10.27
2023-04-25T07:02:40.132Z,10.49
2023-04-25T07:05:08.505Z,10.47
2023-04-25T07:07:38.717Z,10.42
2023-04-25T07:10:07.794Z,10.40
2023-04-25T07:12:35.835Z,10.24
2023-04-25T07:15:08.167Z,10.18
2023-04-25T07:17:36.558Z,10.06
2023-04-25T07:20:06.098Z,9.97
2023-04-25T07:22:34.882Z,9.92
2023-04-25T07:25:02.831Z,9.85
2023-04-25T07:27:30.949Z,9.72
2023-04-25T07:29:59.364Z,9.56
2023-04-25T07:32:28.283Z,9.24
2023-04-25T07:34:56.363Z,9.05
2023-04-25T07:37:24.423Z,8.92
2023-04-25T07:39:52.458Z,8.73
2023-04-25T07:42:20.468Z,8.52
2023-04-25T07:44:48.487Z,8.49
2023-04-25T07:47:16.445Z,8.42
2023-04-25T07:49:44.556Z,8.42
2023-04-25T07:52:12.500Z,8.43
2023-04-25T07:54:41.607Z,8.40
2023-04-25T07:57:09.602Z,8.34
2023-04-25T07:59:37.608Z,8.35
2023-04-25T08:02:05.622Z,8.34
2023-04-25T08:04:33.848Z,8.33
2023-04-25T08:07:02.199Z,8.25
2023-04-25T08:09:30.622Z,8.26
2023-04-25T08:11:58.683Z,8.28
2023-04-25T08:14:26.784Z,8.32
2023-04-25T08:16:54.933Z,8.31
2023-04-25T08:19:22.935Z,8.31
2023-04-25T08:21:50.999Z,8.36
2023-04-25T08:24:19.162Z,8.33
2023-04-25T08:26:47.164Z,8.29
2023-04-25T08:29:15.196Z,8.30
2023-04-25T08:31:43.438Z,8.25
2023-04-25T08:34:12.109Z,8.28
2023-04-25T08:36:40.383Z,8.33
2023-04-25T08:39:09.667Z,8.31
2023-04-25T08:41:39.563Z,8.35
2023-04-25T08:44:07.729Z,8.35
2023-04-25T08:46:35.820Z,8.26
2023-04-25T08:49:04.464Z,8.27
2023-04-25T08:51:34.605Z,8.22
2023-04-25T08:54:27.840Z,8.19
2023-04-25T08:57:00.539Z,8.19
2023-04-25T08:59:28.630Z,8.23
2023-04-25T09:01:57.295Z,8.24
2023-04-25T09:04:25.437Z,8.20
2023-04-25T09:06:53.598Z,8.11
2023-04-25T09:09:21.706Z,8.15
2023-04-25T09:11:49.709Z,8.24
2023-04-25T09:14:18.662Z,8.27
2023-04-25T09:17:03.568Z,8.31
2023-04-25T09:19:41.099Z,8.32
2023-04-25T09:22:10.104Z,8.32
2023-04-25T09:24:48.369Z,8.41
2023-04-25T09:27:22.340Z,8.47
2023-04-25T09:29:50.413Z,8.54
2023-04-25T09:32:21.229Z,8.56
2023-04-25T09:34:51.774Z,8.60
2023-04-25T09:37:20.996Z,8.64
2023-04-25T09:39:52.900Z,8.73
2023-04-25T09:42:20.877Z,8.76
2023-04-25T09:44:49.061Z,8.81
2023-04-25T09:47:18.955Z,8.88
2023-04-25T09:49:47.073Z,8.89
2023-04-25T09:52:19.670Z,8.95
2023-04-25T09:54:48.289Z,9.00
2023-04-25T09:57:20.791Z,9.07
2023-04-25T09:59:53.498Z,9.14
2023-04-25T10:02:23.303Z,9.20
2023-04-25T10:04:57.462Z,9.25
2023-04-25T10:07:29.010Z,9.40
2023-04-25T10:10:04.192Z,9.53
2023-04-25T10:12:35.699Z,9.61
2023-04-25T10:15:04.044Z,9.59
2023-04-25T10:17:32.315Z,9.56
2023-04-25T10:20:01.147Z,9.66
2023-04-25T10:22:37.236Z,9.74
2023-04-25T10:25:08.405Z,9.87
2023-04-25T10:27:36.626Z,10.04
2023-04-25T10:30:17.003Z,10.22
2023-04-25T10:32:45.433Z,10.44
2023-04-25T10:35:20.839Z,10.76
2023-04-25T10:38:18.139Z,10.87
2023-04-25T10:41:05.386Z,10.88
2023-04-25T10:43:33.299Z,10.99
2023-04-25T10:46:05.546Z,11.09
2023-04-25T10:48:33.972Z,11.23
2023-04-25T10:51:11.988Z,11.28
2023-04-25T10:53:40.122Z,11.29
2023-04-25T10:56:20.440Z,11.29
2023-04-25T10:58:50.263Z,11.19
2023-04-25T11:01:24.057Z,11.03
2023-04-25T11:03:53.056Z,10.93
2023-04-25T11:06:46.770Z,10.89
2023-04-25T11:09:17.896Z,11.16
2023-04-25T11:11:45.876Z,11.04
2023-04-25T11:14:13.986Z,11.08
2023-04-25T11:16:42.258Z,11.25
2023-04-25T11:19:10.363Z,11.45
2023-04-25T11:21:38.416Z,12.10
2023-04-25T11:24:06.893Z,12.47
2023-04-25T11:26:34.962Z,12.79
2023-04-25T11:29:03.298Z,12.90
2023-04-25T11:31:31.630Z,12.73
2023-04-25T11:33:59.683Z,12.47
2023-04-25T11:36:28.480Z,12.30
2023-04-25T11:38:56.509Z,12.84
2023-04-25T11:41:24.833Z,12.74
2023-04-25T11:43:56.892Z,12.52
2023-04-25T11:46:25.044Z,12.59
2023-04-25T11:48:53.660Z,12.94
2023-04-25T11:51:22.557Z,13.60
2023-04-25T11:53:50.502Z,13.72
2023-04-25T11:56:18.568Z,14.24
2023-04-25T11:59:01.902Z,14.69
2023-04-25T12:01:35.711Z,14.59
2023-04-25T12:04:33.822Z,14.22
2023-04-25T12:07:03.938Z,14.10
2023-04-25T12:09:33.490Z,14.61
2023-04-25T12:12:05.077Z,14.37
2023-04-25T12:14:34.809Z,14.24
2023-04-25T12:17:04.750Z,13.91
2023-04-25T12:19:36.672Z,13.65
2023-04-25T12:22:07.570Z,13.56
2023-04-25T12:24:39.068Z,13.71
2023-04-25T12:27:08.309Z,14.06
2023-04-25T12:29:48.604Z,13.61
2023-04-25T12:32:18.198Z,13.15
2023-04-25T12:34:46.239Z,12.62
2023-04-25T12:37:14.189Z,12.37
2023-04-25T12:39:42.494Z,12.15
2023-04-25T12:42:13.973Z,12.49
2023-04-25T12:44:42.747Z,13.28
2023-04-25T12:47:11.138Z,13.89
2023-04-25T12:49:39.180Z,14.56
2023-04-25T12:52:07.322Z,15.03
2023-04-25T12:54:35.458Z,15.40
2023-04-25T12:57:05.172Z,15.87
2023-04-25T12:59:33.433Z,15.96
2023-04-25T13:02:01.781Z,15.95
2023-04-25T13:04:30.222Z,16.00
2023-04-25T13:06:58.544Z,16.21
2023-04-25T13:09:26.621Z,16.45
2023-04-25T13:11:56.290Z,16.43
2023-04-25T13:14:26.409Z,16.11
2023-04-25T13:16:54.508Z,16.04
2023-04-25T13:19:22.701Z,15.77
2023-04-25T13:21:50.679Z,15.62
2023-04-25T13:24:19.057Z,16.34
2023-04-25T13:26:47.068Z,15.95
2023-04-25T13:29:15.861Z,15.69
2023-04-25T13:31:44.026Z,15.28
2023-04-25T13:34:12.670Z,15.24
2023-04-25T13:36:40.852Z,15.10
2023-04-25T13:39:08.859Z,14.89
2023-04-25T13:41:37.143Z,14.66
2023-04-25T13:44:05.160Z,14.43
2023-04-25T13:46:45.725Z,14.25
2023-04-25T13:49:14.937Z,14.17
2023-04-25T13:51:43.182Z,14.90
2023-04-25T13:54:11.312Z,15.40
2023-04-25T13:56:39.460Z,15.94
2023-04-25T13:59:07.397Z,16.33
2023-04-25T14:01:37.861Z,16.64
2023-04-25T14:04:06.444Z,16.34
2023-04-25T14:06:35.365Z,15.92
2023-04-25T14:09:03.620Z,15.31
2023-04-25T14:11:32.058Z,14.99
2023-04-25T14:14:00.024Z,14.45
2023-04-25T14:16:28.145Z,14.47
2023-04-25T14:18:56.896Z,14.65
2023-04-25T14:21:24.954Z,14.74
2023-04-25T14:23:53.340Z,14.82
2023-04-25T14:26:21.851Z,14.85
2023-04-25T14:28:49.839Z,14.54
2023-04-25T14:31:17.965Z,14.34
2023-04-25T14:33:46.097Z,14.19
2023-04-25T14:36:14.089Z,14.07
2023-04-25T14:38:42.218Z,13.96
2023-04-25T14:41:10.280Z,13.76
2023-04-25T14:43:38.943Z,13.59
2023-04-25T14:46:06.983Z,13.41
2023-04-25T14:48:35.589Z,13.15
2023-04-25T14:51:03.670Z,13.07
2023-04-25T14:53:31.769Z,13.05
2023-04-25T14:55:59.761Z,13.07
2023-04-25T14:58:27.744Z,13.08
2023-04-25T15:00:56.396Z,13.15
2023-04-25T15:03:25.482Z,13.13
2023-04-25T15:05:53.637Z,13.07
2023-04-25T15:08:21.940Z,12.96
2023-04-25T15:10:49.932Z,12.91
2023-04-25T15:13:18.443Z,12.86
2023-04-25T15:15:46.720Z,12.79
2023-04-25T15:18:14.998Z,12.62
2023-04-25T15:20:43.057Z,12.53
2023-04-25T15:23:11.156Z,12.50
2023-04-25T15:25:39.215Z,12.47
2023-04-25T15:28:07.309Z,12.33
2023-04-25T15:30:35.350Z,12.37
2023-04-25T15:33:03.362Z,12.36
2023-04-25T15:35:31.419Z,12.44
2023-04-25T15:38:00.915Z,12.56
2023-04-25T15:40:29.791Z,12.61
2023-04-25T15:42:57.911Z,12.65
2023-04-25T15:45:27.651Z,12.63
2023-04-25T15:47:58.220Z,12.61
2023-04-25T15:50:26.375Z,12.51
2023-04-25T15:52:54.619Z,12.47
2023-04-25T15:55:23.216Z,12.40
2023-04-25T15:57:51.346Z,12.31
2023-04-25T16:00:20.720Z,12.18
2023-04-25T16:02:49.716Z,11.96
2023-04-25T16:05:18.743Z,11.90
2023-04-25T16:07:48.145Z,11.84
2023-04-25T16:10:18.596Z,11.71
2023-04-25T16:12:46.703Z,11.60
2023-04-25T16:15:14.693Z,11.62
2023-04-25T16:17:42.832Z,11.62
2023-04-25T16:20:11.580Z,11.79
2023-04-25T16:22:43.408Z,11.81
2023-04-25T16:25:11.942Z,11.79
2023-04-25T16:27:40.737Z,11.81
2023-04-25T16:30:10.048Z,11.80
2023-04-25T16:32:39.227Z,11.74
2023-04-25T16:35:07.710Z,11.68
2023-04-25T16:37:35.720Z,11.52
2023-04-25T16:40:03.817Z,11.41
2023-04-25T16:42:31.906Z,11.30
2023-04-25T16:44:59.954Z,11.21
2023-04-25T16:47:28.015Z,11.10
2023-04-25T16:49:56.239Z,10.98
2023-04-25T16:52:25.079Z,10.90
2023-04-25T16:54:53.145Z,10.85
2023-04-25T16:57:22.458Z,10.82
2023-04-25T16:59:50.456Z,10.74
2023-04-25T17:02:18.712Z,10.66
2023-04-25T17:04:47.022Z,10.58
2023-04-25T17:07:15.147Z,10.56
2023-04-25T17:09:43.180Z,10.57
2023-04-25T17:12:11.288Z,10.57
2023-04-25T17:14:39.474Z,10.56
2023-04-25T17:17:08.252Z,10.56
2023-04-25T17:19:36.458Z,10.58
2023-04-25T17:22:04.599Z,10.56
2023-04-25T17:24:32.540Z,10.55
2023-04-25T17:27:00.518Z,10.55
2023-04-25T17:29:29.357Z,10.50
2023-04-25T17:31:58.578Z,10.54
2023-04-25T17:34:27.019Z,10.57
2023-04-25T17:36:56.010Z,10.55
2023-04-25T17:39:24.032Z,10.53
2023-04-25T17:41:52.079Z,10.51
2023-04-25T17:44:20.086Z,10.44
2023-04-25T17:46:48.511Z,10.45
2023-04-25T17:49:16.836Z,10.41
2023-04-25T17:51:44.804Z,10.41
2023-04-25T17:54:13.013Z,10.38
2023-04-25T17:56:41.876Z,10.32
2023-04-25T17:59:09.978Z,10.30
2023-04-25T18:01:38.121Z,10.29
2023-04-25T18:04:07.003Z,10.29
2023-04-25T18:06:35.175Z,10.28
2023-04-25T18:09:03.959Z,10.19
2023-04-25T18:11:32.310Z,10.16
2023-04-25T18:14:00.416Z,10.13
2023-04-25T18:16:30.768Z,10.05
2023-04-25T18:19:06.579Z,10.04
2023-04-25T18:21:35.822Z,10.01
2023-04-25T18:24:03.969Z,10.01
2023-04-25T18:26:32.942Z,9.99
2023-04-25T18:29:01.109Z,10.02
2023-04-25T18:31:31.308Z,10.02
2023-04-25T18:33:59.912Z,10.04
2023-04-25T18:36:28.837Z,10.07
2023-04-25T18:39:01.113Z,10.04
2023-04-25T18:41:52.013Z,10.02
2023-04-25T18:44:19.324Z,10.03
2023-04-25T18:46:48.544Z,10.06
2023-04-25T18:49:17.305Z,10.07
2023-04-25T18:51:45.719Z,10.07
2023-04-25T18:54:13.889Z,10.04
2023-04-25T18:56:42.702Z,10.01
2023-04-25T18:59:10.770Z,9.97
2023-04-25T19:01:39.060Z,9.94
2023-04-25T19:04:08.254Z,9.83
2023-04-25T19:06:36.659Z,9.75
2023-04-25T19:09:04.865Z,9.70
2023-04-25T19:11:32.962Z,9.68
2023-04-25T19:14:02.476Z,9.62
2023-04-25T19:16:30.577Z,9.60
2023-04-25T19:18:58.678Z,9.56
2023-04-25T19:21:26.771Z,9.55
2023-04-25T19:23:55.495Z,9.52
2023-04-25T19:26:23.940Z,9.52
2023-04-25T19:29:15.055Z,9.49
2023-04-25T19:31:44.491Z,9.50
2023-04-25T19:34:12.768Z,9.47
2023-04-25T19:36:42.381Z,9.47
2023-04-25T19:39:10.582Z,9.46
2023-04-25T19:41:39.635Z,9.46
2023-04-25T19:44:09.988Z,9.43
2023-04-25T19:46:38.740Z,9.40
2023-04-25T19:49:08.915Z,9.40
2023-04-25T19:51:38.519Z,9.31
2023-04-25T19:54:06.583Z,9.25
2023-04-25T19:56:34.681Z,9.23
2023-04-25T19:59:02.743Z,9.14
2023-04-25T20:01:30.958Z,9.06
2023-04-25T20:03:59.085Z,9.08
2023-04-25T20:06:27.791Z,9.10
2023-04-25T20:08:56.008Z,9.09
2023-04-25T20:11:24.214Z,9.03
2023-04-25T20:13:52.908Z,8.99
2023-04-25T20:16:23.008Z,8.96
2023-04-25T20:18:51.634Z,8.98
2023-04-25T20:21:19.959Z,8.92
2023-04-25T20:23:48.143Z,8.90
2023-04-25T20:26:16.336Z,8.86
2023-04-25T20:28:44.529Z,8.84
2023-04-25T20:31:12.617Z,8.79
2023-04-25T20:33:40.750Z,8.74
2023-04-25T20:36:09.097Z,8.76
2023-04-25T20:38:37.259Z,8.73
2023-04-25T20:41:05.421Z,8.74
2023-04-25T20:43:33.405Z,8.77
2023-04-25T20:46:01.697Z,8.82
2023-04-25T20:48:29.795Z,8.80
2023-04-25T20:50:58.601Z,8.80
2023-04-25T20:53:26.754Z,8.78
2023-04-25T20:55:54.773Z,8.79
2023-04-25T20:58:23.000Z,8.80
2023-04-25T21:00:52.442Z,8.80
2023-04-25T21:03:20.845Z,8.84
2023-04-25T21:05:49.176Z,8.82
2023-04-25T21:08:17.457Z,8.83
2023-04-25T21:10:45.632Z,8.82
2023-04-25T21:13:14.264Z,8.82
2023-04-25T21:15:42.535Z,8.81
2023-04-25T21:18:10.866Z,8.80
2023-04-25T21:20:39.087Z,8.77
2023-04-25T21:23:07.128Z,8.78
2023-04-25T21:25:35.482Z,8.78
2023-04-25T21:28:04.295Z,8.76
2023-04-25T21:30:32.406Z,8.76
2023-04-25T21:33:00.526Z,8.70
2023-04-25T21:35:28.605Z,8.70
2023-04-25T21:37:56.705Z,8.71
2023-04-25T21:40:24.906Z,8.70
2023-04-25T21:42:54.572Z,8.71
2023-04-25T21:45:22.769Z,8.69
2023-04-25T21:47:51.906Z,8.68
2023-04-25T21:50:21.058Z,8.69
2023-04-25T21:52:49.793Z,8.67
2023-04-25T21:55:18.422Z,8.68
2023-04-25T21:57:46.589Z,8.67
2023-04-25T22:00:28.864Z,8.63
2023-04-25T22:02:57.226Z,8.62
2023-04-25T22:05:27.776Z,8.62
2023-04-25T22:07:58.373Z,8.62
2023-04-25T22:10:26.575Z,8.60
2023-04-25T22:12:55.012Z,8.57
2023-04-25T22:18:07.071Z,8.54
2023-04-25T22:20:36.010Z,8.55
2023-04-25T22:23:04.647Z,8.55
2023-04-25T22:25:33.234Z,8.48
2023-04-25T22:28:01.428Z,8.48
2023-04-25T22:30:31.286Z,8.46
2023-04-25T22:32:59.493Z,8.45
2023-04-25T22:35:27.733Z,8.46
2023-04-25T22:37:55.762Z,8.46
2023-04-25T22:40:23.885Z,8.44
2023-04-25T22:42:51.980Z,8.45
2023-04-25T22:45:20.041Z,8.43
2023-04-25T22:47:48.750Z,8.43
2023-04-25T22:50:17.973Z,8.44
2023-04-25T22:52:46.048Z,8.43
2023-04-25T22:55:14.460Z,8.41
2023-04-25T22:57:42.749Z,8.40
2023-04-25T23:00:17.390Z,8.39
2023-04-25T23:02:47.187Z,8.40
2023-04-25T23:05:16.099Z,8.40
2023-04-25T23:07:45.989Z,8.39
2023-04-25T23:10:14.686Z,8.34
2023-04-25T23:12:42.888Z,8.33
2023-04-25T23:15:11.532Z,8.32
2023-04-25T23:17:39.818Z,8.32
2023-04-25T23:20:08.770Z,8.28
2023-04-25T23:22:37.505Z,8.24
2023-04-25T23:25:05.792Z,8.23
2023-04-25T23:27:34.389Z,8.20
2023-04-25T23:30:02.912Z,8.21
2023-04-25T23:32:30.992Z,8.16
2023-04-25T23:34:59.107Z,8.14
2023-04-25T23:37:27.570Z,8.11
2023-04-25T23:39:55.602Z,8.08
2023-04-25T23:42:23.540Z,8.09
2023-04-25T23:44:51.584Z,8.08
2023-04-25T23:47:20.479Z,8.05
2023-04-25T23:49:48.821Z,7.99
2023-04-25T23:52:17.320Z,7.97
2023-04-25T23:54:45.314Z,7.92
2023-04-25T23:57:13.683Z,7.91
2023-04-25T23:59:42.445Z,7.88
